Time;durP1;ratioP1;P1;durP2;ratioP2;P2;SDS_P1;SDS_P2;PMS_P1;PMS_P2;Temp;Humidity;BMP_temperature;BMP_pressure;BME280_temperature;BME280_humidity;BME280_pressure;Samples;Min_cycle;Max_cycle;Signal;HPM_P1;HPM_P2
2021/05/19 00:01:44;;;;;;;0.70;0.50;;;12.50;81.10;;;;;;5033145;28;20590;-70
2021/05/19 00:04:11;;;;;;;1.27;0.60;;;12.40;81.30;;;;;;5015497;28;20160;-69
2021/05/19 00:06:37;;;;;;;0.93;0.50;;;12.40;81.40;;;;;;5014743;28;20467;-70
2021/05/19 00:09:05;;;;;;;1.48;0.45;;;12.40;81.40;;;;;;5033053;28;20026;-69
2021/05/19 00:11:31;;;;;;;0.73;0.40;;;12.40;81.40;;;;;;5032465;28;20481;-70
2021/05/19 00:13:56;;;;;;;2.30;0.43;;;12.40;81.60;;;;;;5032741;28;20100;-69
2021/05/19 00:16:22;;;;;;;1.48;0.45;;;12.40;81.70;;;;;;5032446;28;20494;-70
2021/05/19 00:18:48;;;;;;;1.10;0.40;;;12.40;81.90;;;;;;5031575;28;20474;-69
2021/05/19 00:21:13;;;;;;;0.85;0.60;;;12.40;82.00;;;;;;5014654;28;20463;-70
2021/05/19 00:23:39;;;;;;;1.35;0.70;;;12.40;82.00;;;;;;5015327;28;20029;-70
2021/05/19 00:26:05;;;;;;;0.73;0.40;;;12.30;81.90;;;;;;5015135;28;20025;-69
2021/05/19 00:28:31;;;;;;;2.08;0.63;;;12.30;82.10;;;;;;5032182;28;20029;-69
2021/05/19 00:31:00;;;;;;;4.72;0.80;;;12.30;82.30;;;;;;5031464;28;20025;-69
2021/05/19 00:33:26;;;;;;;1.50;0.50;;;12.30;82.30;;;;;;5014401;28;20124;-69
2021/05/19 00:35:51;;;;;;;0.90;0.60;;;12.20;82.50;;;;;;5032345;28;20100;-69
2021/05/19 00:38:20;;;;;;;0.73;0.60;;;12.20;82.60;;;;;;5032057;28;20025;-69
2021/05/19 00:40:49;;;;;;;1.17;0.60;;;12.10;82.70;;;;;;5032313;28;20045;-69
2021/05/19 00:43:15;;;;;;;0.73;0.52;;;12.10;82.80;;;;;;5032004;28;20029;-71
2021/05/19 00:45:41;;;;;;;0.65;0.40;;;12.10;82.90;;;;;;5032734;28;20065;-69
2021/05/19 00:48:09;;;;;;;1.35;0.57;;;12.10;83.00;;;;;;5014684;28;20517;-69
2021/05/19 00:50:35;;;;;;;1.38;0.40;;;12.10;83.20;;;;;;5030623;28;20033;-70
2021/05/19 00:53:04;;;;;;;0.55;0.43;;;12.10;83.20;;;;;;5014820;28;20025;-69
2021/05/19 00:55:29;;;;;;;0.70;0.50;;;12.00;83.20;;;;;;5014152;28;20026;-69
2021/05/19 00:57:56;;;;;;;3.38;0.60;;;12.00;83.40;;;;;;5032493;28;20033;-69
2021/05/19 01:00:23;;;;;;;2.05;0.47;;;11.90;83.80;;;;;;5014079;28;20172;-69
2021/05/19 01:02:49;;;;;;;0.70;0.43;;;11.90;84.20;;;;;;5014789;28;20165;-69
2021/05/19 01:05:26;;;;;;;0.50;0.35;;;11.90;84.30;;;;;;5032640;28;20599;-69
2021/05/19 01:10:51;;;;;;;0.75;0.70;;;11.80;84.50;;;;;;4993818;28;20031;-69
2021/05/19 01:13:17;;;;;;;0.73;0.40;;;11.80;84.60;;;;;;4977684;28;20034;-72
2021/05/19 01:15:44;;;;;;;1.23;0.50;;;11.80;84.70;;;;;;4994495;28;20034;-69
2021/05/19 01:18:10;;;;;;;0.70;0.50;;;11.70;85.00;;;;;;4994539;28;20030;-69
2021/05/19 01:20:36;;;;;;;0.40;0.40;;;11.60;85.00;;;;;;4977533;28;20456;-69
2021/05/19 01:23:05;;;;;;;0.60;0.50;;;11.60;85.10;;;;;;4978182;28;20030;-69
2021/05/19 01:25:32;;;;;;;0.55;0.50;;;11.60;85.40;;;;;;4977445;28;20026;-69
2021/05/19 01:28:00;;;;;;;2.70;0.68;;;11.50;85.50;;;;;;4978041;28;20508;-69
2021/05/19 01:30:50;;;;;;;2.15;0.40;;;11.50;85.80;;;;;;4977402;28;20030;-69
2021/05/19 01:33:16;;;;;;;0.77;0.60;;;11.40;86.10;;;;;;4977844;28;20040;-69
2021/05/19 01:35:43;;;;;;;1.80;0.43;;;11.40;86.00;;;;;;4977526;28;20026;-69
2021/05/19 01:38:09;;;;;;;1.35;0.70;;;11.40;86.10;;;;;;4994137;28;20045;-69
2021/05/19 01:40:36;;;;;;;0.65;0.50;;;11.40;86.20;;;;;;4993488;28;20042;-68
2021/05/19 01:43:02;;;;;;;1.02;0.50;;;11.30;86.20;;;;;;4994087;28;20026;-69
2021/05/19 01:45:28;;;;;;;1.27;0.63;;;11.30;86.20;;;;;;4981814;28;20030;-69
2021/05/19 01:47:55;;;;;;;3.60;1.02;;;11.30;86.10;;;;;;5017739;28;20081;-69
2021/05/19 01:50:24;;;;;;;1.33;0.47;;;11.30;86.30;;;;;;5017275;28;20030;-69
2021/05/19 01:52:53;;;;;;;0.85;0.50;;;11.30;86.10;;;;;;5035568;28;20029;-69
2021/05/19 01:55:20;;;;;;;2.47;0.80;;;11.30;86.10;;;;;;5034703;28;20417;-72
2021/05/19 01:57:47;;;;;;;1.20;0.57;;;11.30;86.20;;;;;;5017809;28;20025;-69
2021/05/19 02:00:15;;;;;;;1.35;0.50;;;11.20;86.40;;;;;;5035088;28;20032;-69
2021/05/19 02:02:42;;;;;;;1.25;0.55;;;11.20;86.50;;;;;;5034875;28;20029;-69
2021/05/19 02:05:11;;;;;;;0.85;0.43;;;11.10;86.80;;;;;;5017840;28;20462;-69
2021/05/19 02:07:38;;;;;;;0.70;0.50;;;11.10;87.00;;;;;;5016973;28;20037;-69
2021/05/19 02:10:09;;;;;;;1.10;0.60;;;11.10;86.80;;;;;;5034227;28;20032;-69
2021/05/19 02:12:35;;;;;;;1.15;0.50;;;11.10;87.00;;;;;;5034668;28;20025;-69
2021/05/19 02:15:01;;;;;;;1.55;0.70;;;11.10;87.10;;;;;;5017622;28;20097;-69
2021/05/19 02:17:29;;;;;;;1.35;0.85;;;11.10;87.20;;;;;;5034745;28;20585;-69
2021/05/19 02:19:55;;;;;;;0.98;0.70;;;11.00;87.20;;;;;;5017177;28;20041;-69
2021/05/19 02:22:22;;;;;;;0.60;0.57;;;11.00;87.40;;;;;;5034429;28;20039;-71
2021/05/19 02:24:47;;;;;;;1.98;0.95;;;11.00;87.50;;;;;;5035084;28;20056;-69
2021/05/19 02:27:14;;;;;;;2.03;0.73;;;10.90;87.40;;;;;;5035013;28;20399;-69
2021/05/19 02:29:40;;;;;;;2.60;0.85;;;10.90;87.30;;;;;;5016593;28;20034;-69
2021/05/19 02:32:06;;;;;;;0.80;0.68;;;10.90;87.50;;;;;;5017091;28;20128;-69
2021/05/19 02:34:32;;;;;;;1.50;0.90;;;10.90;87.80;;;;;;5016480;28;20032;-69
2021/05/19 02:36:57;;;;;;;2.28;0.73;;;10.90;87.70;;;;;;5016950;28;20029;-69
2021/05/19 02:39:23;;;;;;;2.08;0.73;;;10.80;87.80;;;;;;5016454;28;20108;-70
2021/05/19 02:41:49;;;;;;;2.05;0.85;;;10.80;87.90;;;;;;5034949;28;20038;-69
2021/05/19 02:44:15;;;;;;;2.15;1.00;;;10.80;88.10;;;;;;5016921;28;20108;-69
2021/05/19 02:46:40;;;;;;;2.55;0.80;;;10.80;88.00;;;;;;5032225;28;20096;-69
2021/05/19 02:49:06;;;;;;;2.42;0.95;;;10.70;88.00;;;;;;5016804;28;20045;-69
2021/05/19 02:51:34;;;;;;;1.50;0.80;;;10.70;88.30;;;;;;5033916;28;20382;-69
2021/05/19 02:54:00;;;;;;;2.42;0.88;;;10.80;88.00;;;;;;5034195;28;20053;-69
2021/05/19 02:56:26;;;;;;;3.30;0.80;;;10.80;87.90;;;;;;5034083;28;20454;-69
2021/05/19 02:58:53;;;;;;;3.00;0.82;;;10.80;87.70;;;;;;5034317;28;20033;-69
2021/05/19 03:01:19;;;;;;;3.38;0.90;;;10.80;87.60;;;;;;5034579;28;20029;-69
2021/05/19 03:03:44;;;;;;;1.95;0.85;;;10.80;87.50;;;;;;5015968;28;20035;-69
2021/05/19 03:06:10;;;;;;;1.20;0.98;;;10.80;87.50;;;;;;5032979;28;20037;-69
2021/05/19 03:08:36;;;;;;;2.60;1.10;;;10.80;87.60;;;;;;5033946;28;20083;-69
2021/05/19 03:11:03;;;;;;;2.58;1.13;;;10.80;87.60;;;;;;5033084;28;20029;-69
2021/05/19 03:13:28;;;;;;;1.20;1.05;;;10.70;87.60;;;;;;5015788;28;20032;-69
2021/05/19 03:15:54;;;;;;;1.85;1.10;;;10.70;87.80;;;;;;5016421;28;20025;-69
2021/05/19 03:18:20;;;;;;;1.35;1.00;;;10.70;87.60;;;;;;5034043;28;20113;-69
2021/05/19 03:20:45;;;;;;;3.90;1.23;;;10.70;87.50;;;;;;5015377;28;20145;-69
2021/05/19 03:23:11;;;;;;;4.20;1.10;;;10.70;87.70;;;;;;5033654;28;20026;-69
2021/05/19 03:25:36;;;;;;;1.98;1.15;;;10.70;87.70;;;;;;5015511;28;20493;-69
2021/05/19 03:28:02;;;;;;;3.47;1.40;;;10.70;87.60;;;;;;5016100;28;20029;-69
2021/05/19 03:30:28;;;;;;;4.40;1.52;;;10.70;87.80;;;;;;5015139;28;20056;-70
2021/05/19 03:32:54;;;;;;;4.80;1.45;;;10.70;87.70;;;;;;5015470;28;20060;-69
2021/05/19 03:35:20;;;;;;;2.85;1.42;;;10.70;87.70;;;;;;5033671;28;20037;-69
2021/05/19 03:37:45;;;;;;;1.80;1.40;;;10.60;87.60;;;;;;5015295;28;20032;-69
2021/05/19 03:40:13;;;;;;;2.75;1.30;;;10.70;87.70;;;;;;5015676;28;20079;-69
2021/05/19 03:42:39;;;;;;;4.35;1.33;;;10.70;87.60;;;;;;5014941;28;20025;-69
2021/05/19 03:45:08;;;;;;;3.97;1.55;;;10.60;87.60;;;;;;5015608;28;20033;-69
2021/05/19 03:47:33;;;;;;;2.58;1.20;;;10.60;87.90;;;;;;5014727;28;20049;-69
2021/05/19 03:49:59;;;;;;;2.65;1.20;;;10.60;88.00;;;;;;5015576;28;20183;-69
2021/05/19 03:52:25;;;;;;;2.17;1.27;;;10.70;87.90;;;;;;5033718;28;20031;-69
2021/05/19 03:54:51;;;;;;;3.17;1.50;;;10.70;88.00;;;;;;5015649;28;20458;-69
2021/05/19 03:57:17;;;;;;;3.20;1.52;;;10.60;88.00;;;;;;5033605;28;20447;-69
2021/05/19 03:59:45;;;;;;;4.95;1.77;;;10.60;88.00;;;;;;5032726;28;20029;-69
2021/05/19 04:02:11;;;;;;;8.30;2.10;;;10.60;88.00;;;;;;5033213;28;20025;-69
2021/05/19 04:04:36;;;;;;;6.13;1.98;;;10.70;88.30;;;;;;5032288;28;20079;-69
2021/05/19 04:07:02;;;;;;;5.50;2.15;;;10.70;88.00;;;;;;5033109;28;20481;-69
2021/05/19 04:09:28;;;;;;;4.70;1.58;;;10.70;87.60;;;;;;5032429;28;20033;-69
2021/05/19 04:11:53;;;;;;;6.03;1.67;;;10.80;87.60;;;;;;5033304;28;20097;-69
2021/05/19 04:14:19;;;;;;;5.07;1.75;;;10.80;87.40;;;;;;5015418;28;20462;-69
2021/05/19 04:16:45;;;;;;;3.17;1.42;;;10.80;87.20;;;;;;5014568;28;20466;-69
2021/05/19 04:19:11;;;;;;;2.22;1.30;;;10.80;87.30;;;;;;5015206;28;20132;-69
2021/05/19 04:21:37;;;;;;;2.17;1.38;;;10.90;87.10;;;;;;5014534;28;20466;-69
2021/05/19 04:24:02;;;;;;;3.75;1.52;;;11.00;86.90;;;;;;5032833;28;20025;-69
2021/05/19 04:26:31;;;;;;;1.63;1.08;;;11.00;86.80;;;;;;5014434;28;20021;-70
2021/05/19 04:28:56;;;;;;;3.65;1.20;;;11.00;86.70;;;;;;5032602;28;20048;-69
2021/05/19 04:31:22;;;;;;;1.25;0.93;;;11.00;86.20;;;;;;5031488;28;20029;-70
2021/05/19 04:33:48;;;;;;;2.55;1.15;;;11.00;86.20;;;;;;5014287;28;20704;-69
2021/05/19 04:36:15;;;;;;;1.65;0.85;;;11.00;86.30;;;;;;5015058;28;20064;-69
2021/05/19 04:38:41;;;;;;;2.92;1.27;;;11.00;86.30;;;;;;5030595;28;20025;-69
2021/05/19 04:41:07;;;;;;;2.88;1.00;;;11.00;86.50;;;;;;5015042;28;20048;-69
2021/05/19 04:43:32;;;;;;;2.35;1.17;;;11.00;86.70;;;;;;5032261;28;20028;-70
2021/05/19 04:45:58;;;;;;;3.17;1.20;;;11.00;86.60;;;;;;5032538;28;20409;-69
2021/05/19 04:48:26;;;;;;;3.83;1.17;;;11.00;86.50;;;;;;5014370;28;20049;-69
2021/05/19 04:50:52;;;;;;;3.00;1.00;;;11.00;86.60;;;;;;5031916;28;20025;-69
2021/05/19 04:53:18;;;;;;;2.67;1.10;;;11.10;86.70;;;;;;5014836;28;20544;-69
2021/05/19 04:55:43;;;;;;;2.53;1.10;;;11.10;86.50;;;;;;5032132;28;20501;-69
2021/05/19 04:58:09;;;;;;;2.67;1.05;;;11.10;86.40;;;;;;5031325;28;20463;-69
2021/05/19 05:00:38;;;;;;;3.47;0.90;;;11.10;86.50;;;;;;5014112;28;20037;-69
2021/05/19 05:03:05;;;;;;;1.50;1.00;;;11.10;86.50;;;;;;5032347;28;20478;-69
2021/05/19 05:05:33;;;;;;;1.88;1.10;;;11.10;86.50;;;;;;5014016;28;20103;-72
2021/05/19 05:07:59;;;;;;;4.18;0.95;;;11.10;86.50;;;;;;5014897;28;20030;-69
2021/05/19 05:10:24;;;;;;;2.40;0.90;;;11.10;86.30;;;;;;5014698;28;20489;-69
2021/05/19 05:12:50;;;;;;;2.22;1.35;;;11.10;86.30;;;;;;5013953;28;20396;-69
2021/05/19 05:15:18;;;;;;;3.42;1.00;;;11.10;86.50;;;;;;5032157;28;20060;-69
2021/05/19 05:17:44;;;;;;;1.35;0.98;;;11.10;86.50;;;;;;5013930;28;20512;-69
2021/05/19 05:20:11;;;;;;;4.30;1.45;;;11.10;86.60;;;;;;5031879;28;20029;-69
2021/05/19 05:22:37;;;;;;;4.18;1.40;;;11.00;86.50;;;;;;5031636;28;20030;-69
2021/05/19 05:25:05;;;;;;;3.88;1.60;;;11.10;86.90;;;;;;5014465;28;20426;-69
2021/05/19 05:27:31;;;;;;;2.45;1.30;;;11.10;86.70;;;;;;5014544;28;20076;-69
2021/05/19 05:29:56;;;;;;;2.60;1.45;;;11.20;86.50;;;;;;5031833;28;20524;-70
2021/05/19 05:32:22;;;;;;;2.72;1.50;;;11.10;86.30;;;;;;5032157;28;20033;-69
2021/05/19 05:34:48;;;;;;;4.25;1.25;;;11.10;86.20;;;;;;5013785;28;20478;-69
2021/05/19 05:37:14;;;;;;;2.88;1.40;;;11.20;86.00;;;;;;5014324;28;20155;-69
2021/05/19 05:39:39;;;;;;;1.52;1.30;;;11.20;85.90;;;;;;5031120;28;20068;-69
2021/05/19 05:42:06;;;;;;;2.92;1.88;;;11.20;85.80;;;;;;5014240;28;20032;-69
2021/05/19 05:44:31;;;;;;;3.35;1.52;;;11.20;85.90;;;;;;5032020;28;20083;-70
2021/05/19 05:46:57;;;;;;;5.75;1.80;;;11.30;85.60;;;;;;5031673;28;20045;-70
2021/05/19 05:49:23;;;;;;;3.33;1.50;;;11.30;85.50;;;;;;5031996;28;20037;-70
2021/05/19 05:51:49;;;;;;;2.88;1.80;;;11.20;85.40;;;;;;5013732;28;20025;-70
2021/05/19 05:54:14;;;;;;;6.68;2.38;;;11.30;85.30;;;;;;5014278;28;20454;-70
2021/05/19 05:56:41;;;;;;;2.85;1.67;;;11.20;85.10;;;;;;5033732;28;20478;-70
2021/05/19 05:59:08;;;;;;;4.10;1.88;;;11.30;85.20;;;;;;5035608;28;20034;-70
2021/05/19 06:01:34;;;;;;;4.25;1.83;;;11.30;85.40;;;;;;5017208;28;20029;-73
2021/05/19 06:04:00;;;;;;;6.10;1.95;;;11.20;85.60;;;;;;5035418;28;20099;-70
2021/05/19 06:06:25;;;;;;;4.57;1.77;;;11.30;85.50;;;;;;5034137;28;20406;-70
2021/05/19 06:08:51;;;;;;;5.47;2.05;;;11.30;85.40;;;;;;5034499;28;20029;-70
2021/05/19 06:11:17;;;;;;;2.55;1.67;;;11.30;85.40;;;;;;5035294;28;20076;-70
2021/05/19 06:13:42;;;;;;;4.18;2.03;;;11.30;85.40;;;;;;5034666;28;20048;-70
2021/05/19 06:16:08;;;;;;;3.25;2.00;;;11.20;85.30;;;;;;5035399;28;20454;-70
2021/05/19 06:18:34;;;;;;;5.63;1.80;;;11.30;85.40;;;;;;5035130;28;20104;-70
2021/05/19 06:21:00;;;;;;;3.63;1.98;;;11.30;85.40;;;;;;5017328;28;20064;-70
2021/05/19 06:23:26;;;;;;;3.65;1.73;;;11.40;85.30;;;;;;5035084;28;20025;-70
2021/05/19 06:25:52;;;;;;;3.75;1.80;;;11.50;85.00;;;;;;5016476;28;20032;-70
2021/05/19 06:28:17;;;;;;;5.82;2.10;;;11.50;85.00;;;;;;5016925;28;20025;-70
2021/05/19 06:30:43;;;;;;;2.65;1.80;;;11.50;85.30;;;;;;5034309;28;20466;-69
2021/05/19 06:33:09;;;;;;;4.03;1.98;;;11.50;85.10;;;;;;5035038;28;20075;-69
2021/05/19 06:35:35;;;;;;;3.40;1.75;;;11.60;85.40;;;;;;5017060;28;20080;-69
2021/05/19 06:38:01;;;;;;;4.95;2.03;;;11.60;85.30;;;;;;5034572;28;20537;-69
2021/05/19 06:40:26;;;;;;;6.97;2.10;;;11.60;85.00;;;;;;5016850;28;20129;-69
2021/05/19 06:42:52;;;;;;;3.13;1.90;;;11.50;85.10;;;;;;5016379;28;20486;-69
2021/05/19 06:45:17;;;;;;;3.42;1.90;;;11.60;84.70;;;;;;5016868;28;20021;-69
2021/05/19 06:47:43;;;;;;;4.57;2.47;;;11.60;84.90;;;;;;5034056;28;20084;-70
2021/05/19 06:50:10;;;;;;;3.40;1.88;;;11.60;84.90;;;;;;5016490;28;20114;-69
2021/05/19 06:52:36;;;;;;;4.25;1.98;;;11.60;84.90;;;;;;5016691;28;20112;-69
2021/05/19 06:55:02;;;;;;;3.65;1.88;;;11.70;84.60;;;;;;5034024;28;20080;-69
2021/05/19 06:57:28;;;;;;;2.92;2.00;;;11.70;84.10;;;;;;5034470;28;20107;-69
2021/05/19 06:59:54;;;;;;;7.03;2.25;;;11.80;83.80;;;;;;5033437;28;20025;-69
2021/05/19 07:02:20;;;;;;;6.22;2.30;;;11.80;83.60;;;;;;5032826;28;20033;-69
2021/05/19 07:04:45;;;;;;;4.85;2.60;;;11.80;83.70;;;;;;5015954;28;20022;-69
2021/05/19 07:07:11;;;;;;;5.47;2.28;;;11.80;83.80;;;;;;5015451;28;20454;-69
2021/05/19 07:09:37;;;;;;;3.00;2.38;;;11.70;83.40;;;;;;5034210;28;20451;-69
2021/05/19 07:12:04;;;;;;;4.85;2.50;;;11.70;83.50;;;;;;5016033;28;20485;-69
2021/05/19 07:14:31;;;;;;;4.22;2.53;;;11.70;83.40;;;;;;5016351;28;20029;-69
2021/05/19 07:16:56;;;;;;;2.80;1.98;;;11.70;83.40;;;;;;5015342;28;20036;-69
2021/05/19 07:19:24;;;;;;;3.42;2.17;;;11.80;83.90;;;;;;5016276;28;20037;-69
2021/05/19 07:21:51;;;;;;;4.32;2.15;;;11.80;82.30;;;;;;5033584;28;20037;-69
2021/05/19 07:24:17;;;;;;;7.40;2.63;;;11.80;82.50;;;;;;5033744;28;20025;-69
2021/05/19 07:26:44;;;;;;;8.13;2.05;;;11.90;82.10;;;;;;5033206;28;20493;-69
2021/05/19 07:29:11;;;;;;;3.15;1.98;;;11.90;82.30;;;;;;5016220;28;20434;-69
2021/05/19 07:31:39;;;;;;;4.80;1.73;;;12.00;81.40;;;;;;5016040;28;20072;-69
2021/05/19 07:34:05;;;;;;;4.00;2.30;;;12.00;81.10;;;;;;5033769;28;20159;-69
2021/05/19 07:36:30;;;;;;;3.42;2.38;;;12.20;81.00;;;;;;5033721;28;20056;-69
2021/05/19 07:38:56;;;;;;;5.45;2.80;;;12.20;80.30;;;;;;5032956;28;20038;-69
2021/05/19 07:41:24;;;;;;;4.78;3.13;;;12.20;80.20;;;;;;5033609;28;20030;-69
2021/05/19 07:43:50;;;;;;;7.25;3.28;;;12.20;80.10;;;;;;5015232;28;20030;-70
2021/05/19 07:46:16;;;;;;;6.90;3.17;;;12.10;80.50;;;;;;5033062;28;20033;-69
2021/05/19 07:48:41;;;;;;;4.93;2.90;;;12.10;80.00;;;;;;5015082;28;20034;-70
2021/05/19 07:51:07;;;;;;;4.60;2.85;;;12.10;80.30;;;;;;5033368;28;20109;-69
2021/05/19 07:53:33;;;;;;;4.60;2.83;;;12.10;80.60;;;;;;5015602;28;20080;-69
2021/05/19 07:58:34;;;;;;;8.18;3.30;;;12.20;80.70;;;;;;5033273;28;20068;-69
2021/05/19 08:03:58;;;;;;;5.00;3.28;;;12.30;80.10;;;;;;4988539;28;20037;-69
2021/05/19 08:06:23;;;;;;;6.97;3.22;;;12.40;79.80;;;;;;5032894;28;20569;-69
2021/05/19 08:08:49;;;;;;;5.57;3.00;;;12.40;79.90;;;;;;5032492;28;20033;-69
2021/05/19 08:11:16;;;;;;;4.18;2.63;;;12.50;80.40;;;;;;5015477;28;20032;-70
2021/05/19 08:13:46;;;;;;;4.57;2.67;;;12.50;79.00;;;;;;5032549;28;20021;-73
2021/05/19 08:16:14;;;;;;;4.28;2.80;;;12.60;79.30;;;;;;5014767;28;20029;-69
2021/05/19 08:18:40;;;;;;;4.90;2.63;;;12.60;78.10;;;;;;5014826;28;20030;-69
2021/05/19 08:21:05;;;;;;;3.90;2.42;;;12.50;78.10;;;;;;5014660;28;20036;-70
2021/05/19 08:23:31;;;;;;;4.55;2.35;;;12.30;78.50;;;;;;5032306;28;20029;-69
2021/05/19 08:25:57;;;;;;;5.63;2.33;;;12.10;78.10;;;;;;5014548;28;20036;-70
2021/05/19 08:28:23;;;;;;;3.53;1.90;;;12.10;79.10;;;;;;5032995;28;20382;-69
2021/05/19 08:30:49;;;;;;;4.05;2.30;;;12.10;80.00;;;;;;5032175;28;20025;-69
2021/05/19 08:33:15;;;;;;;3.95;1.77;;;12.10;80.40;;;;;;5015185;28;20441;-70
2021/05/19 08:35:41;;;;;;;3.25;1.92;;;12.10;79.40;;;;;;5014912;28;20036;-69
2021/05/19 08:38:07;;;;;;;3.15;1.77;;;12.10;79.30;;;;;;5032347;28;20451;-69
2021/05/19 08:40:33;;;;;;;3.65;1.52;;;12.20;78.20;;;;;;5014530;28;20463;-70
2021/05/19 08:42:59;;;;;;;2.90;1.60;;;12.20;77.70;;;;;;5013949;28;20030;-69
2021/05/19 08:45:25;;;;;;;3.22;1.58;;;12.20;78.00;;;;;;5014358;28;20065;-69
2021/05/19 08:48:02;;;;;;;2.25;1.48;;;12.30;77.70;;;;;;5030359;28;20131;-70
2021/05/19 08:50:30;;;;;;;2.17;1.23;;;12.30;76.00;;;;;;5014834;28;20029;-70
2021/05/19 08:52:59;;;;;;;1.63;1.52;;;12.40;76.50;;;;;;5031912;28;20026;-70
2021/05/19 08:55:26;;;;;;;4.25;1.25;;;12.50;75.70;;;;;;5032367;28;20021;-70
2021/05/19 08:57:51;;;;;;;3.25;1.45;;;12.50;72.80;;;;;;5030497;28;20054;-70
2021/05/19 09:00:18;;;;;;;2.17;1.30;;;12.60;73.70;;;;;;5032043;28;20061;-70
2021/05/19 09:03:06;;;;;;;1.95;1.35;;;12.70;73.10;;;;;;5014313;28;20034;-73
2021/05/19 09:05:33;;;;;;;3.30;1.55;;;12.70;73.10;;;;;;5032379;28;20105;-70
2021/05/19 09:08:13;;;;;;;1.52;0.95;;;12.70;73.80;;;;;;5031478;28;20080;-70
2021/05/19 09:10:41;;;;;;;2.17;1.10;;;12.80;73.50;;;;;;5014854;28;20029;-70
2021/05/19 09:13:07;;;;;;;2.08;1.30;;;12.80;73.00;;;;;;5031686;28;20043;-70
2021/05/19 09:15:50;;;;;;;4.18;1.40;;;12.80;73.10;;;;;;5030825;28;20026;-70
2021/05/19 09:18:16;;;;;;;2.50;1.50;;;12.80;72.80;;;;;;5014322;28;20087;-70
2021/05/19 09:20:46;;;;;;;1.77;1.17;;;12.90;72.30;;;;;;5014478;28;20052;-70
2021/05/19 09:23:18;;;;;;;2.58;1.00;;;12.90;72.30;;;;;;5032078;28;20034;-70
2021/05/19 09:25:44;;;;;;;1.80;0.90;;;13.00;71.20;;;;;;5014645;28;20031;-69
2021/05/19 09:28:22;;;;;;;1.75;1.10;;;13.00;71.30;;;;;;5013794;28;20025;-70
2021/05/19 09:30:48;;;;;;;4.43;1.60;;;13.20;70.30;;;;;;5032777;28;20055;-70
2021/05/19 09:33:23;;;;;;;3.60;1.35;;;13.20;69.70;;;;;;5035921;28;20076;-70
2021/05/19 09:36:21;;;;;;;2.75;1.30;;;13.30;69.70;;;;;;5035457;28;20104;-70
2021/05/19 09:38:49;;;;;;;1.40;0.90;;;13.40;69.30;;;;;;5017523;28;20022;-70
2021/05/19 09:41:16;;;;;;;6.00;1.00;;;13.50;71.00;;;;;;5035997;28;20033;-70
2021/05/19 09:43:42;;;;;;;0.90;0.60;;;13.60;71.40;;;;;;5017813;28;20037;-70
2021/05/19 09:46:53;;;;;;;1.92;0.90;;;13.60;69.40;;;;;;5033915;28;20025;-70
2021/05/19 09:49:19;;;;;;;2.63;0.80;;;13.80;68.60;;;;;;5020988;28;20053;-70
2021/05/19 09:51:49;;;;;;;1.60;1.00;;;13.90;68.10;;;;;;5018036;28;20034;-70
2021/05/19 09:54:44;;;;;;;2.83;1.02;;;13.90;67.80;;;;;;5017937;28;20021;-70
2021/05/19 09:57:12;;;;;;;3.05;0.70;;;14.00;66.00;;;;;;5017319;28;20061;-70
2021/05/19 09:59:42;;;;;;;2.65;1.10;;;14.10;66.20;;;;;;5035519;28;20026;-70
2021/05/19 10:02:09;;;;;;;2.25;1.10;;;14.10;65.30;;;;;;5035162;28;20271;-70
2021/05/19 10:07:01;;;;;;;1.70;1.10;;;14.20;64.70;;;;;;5034952;28;20079;-70
2021/05/19 10:09:28;;;;;;;1.70;0.90;;;14.30;63.30;;;;;;5017736;28;20394;-70
2021/05/19 10:11:55;;;;;;;1.75;0.60;;;14.50;64.10;;;;;;5034471;28;20429;-70
2021/05/19 10:14:22;;;;;;;1.60;0.70;;;14.60;63.90;;;;;;5016985;28;20041;-70
2021/05/19 10:16:53;;;;;;;1.20;0.60;;;14.60;63.90;;;;;;5035413;28;20033;-70
2021/05/19 10:19:28;;;;;;;0.70;0.60;;;14.80;64.20;;;;;;5035598;28;20082;-70
2021/05/19 10:21:57;;;;;;;2.95;0.95;;;14.90;63.10;;;;;;5034186;28;20474;-71
2021/05/19 10:24:46;;;;;;;1.35;0.70;;;14.80;62.40;;;;;;5017383;28;20171;-70
2021/05/19 10:27:14;;;;;;;4.50;0.90;;;14.90;62.20;;;;;;5034430;28;20061;-70
2021/05/19 10:29:46;;;;;;;1.88;0.80;;;14.90;63.60;;;;;;5034995;28;20032;-70
2021/05/19 10:32:25;;;;;;;2.53;0.85;;;15.00;61.60;;;;;;5016558;28;20382;-70
2021/05/19 10:35:00;;;;;;;0.73;0.73;;;14.90;62.20;;;;;;5016559;28;20026;-71
2021/05/19 10:37:29;;;;;;;2.97;0.80;;;14.90;63.00;;;;;;5034785;28;20029;-70
2021/05/19 10:40:06;;;;;;;3.28;0.77;;;14.90;61.90;;;;;;5016221;28;20087;-71
2021/05/19 10:42:34;;;;;;;2.15;0.88;;;15.00;60.30;;;;;;5016742;28;20504;-70
2021/05/19 10:45:09;;;;;;;4.03;0.93;;;15.00;61.10;;;;;;5016231;28;20052;-71
2021/05/19 10:47:36;;;;;;;2.38;0.80;;;15.00;61.00;;;;;;5034239;28;20080;-70
2021/05/19 10:50:10;;;;;;;1.75;0.65;;;15.10;59.10;;;;;;5016081;28;20127;-71
2021/05/19 10:58:39;;;;;;;4.15;0.60;;;15.40;57.30;;;;;;5034518;28;20040;-71
2021/05/19 11:01:10;;;;;;;1.02;0.50;;;15.40;56.90;;;;;;5033770;28;20029;-70
2021/05/19 11:03:37;;;;;;;2.40;0.60;;;15.40;56.90;;;;;;5016554;28;20060;-70
2021/05/19 11:06:05;;;;;;;2.30;0.65;;;15.40;57.50;;;;;;5033686;28;20033;-71
2021/05/19 11:08:34;;;;;;;2.75;0.93;;;15.30;57.30;;;;;;5016360;28;20470;-71
2021/05/19 11:11:27;;;;;;;3.10;1.25;;;15.40;56.40;;;;;;5033604;28;20026;-71
2021/05/19 11:14:15;;;;;;;1.08;0.50;;;15.40;54.20;;;;;;5015986;28;20021;-71
2021/05/19 11:16:43;;;;;;;1.00;0.70;;;15.50;53.10;;;;;;5033837;28;20034;-70
2021/05/19 11:19:13;;;;;;;0.45;0.40;;;15.60;54.00;;;;;;5033487;28;20029;-70
2021/05/19 11:21:39;;;;;;;0.85;0.43;;;15.60;54.00;;;;;;5016570;28;20052;-70
2021/05/19 11:24:08;;;;;;;2.03;0.70;;;15.60;54.20;;;;;;5033406;28;20071;-70
2021/05/19 11:26:36;;;;;;;2.17;0.57;;;15.60;54.30;;;;;;5015973;28;20029;-70
2021/05/19 11:29:02;;;;;;;1.67;0.60;;;15.70;53.30;;;;;;5015538;28;20026;-70
2021/05/19 11:31:39;;;;;;;1.30;0.60;;;15.60;52.70;;;;;;5034128;28;20026;-70
2021/05/19 11:34:05;;;;;;;1.25;0.57;;;15.80;52.20;;;;;;5033155;28;20022;-71
2021/05/19 11:36:41;;;;;;;1.60;0.65;;;16.00;52.20;;;;;;5015941;28;20025;-70
2021/05/19 11:39:27;;;;;;;1.98;0.38;;;16.10;53.60;;;;;;5015307;28;20055;-71
2021/05/19 11:42:07;;;;;;;2.00;1.30;;;16.20;51.70;;;;;;5033445;28;20040;-71
2021/05/19 11:44:38;;;;;;;3.58;0.60;;;16.20;52.10;;;;;;5015388;28;20025;-71
2021/05/19 11:47:05;;;;;;;4.43;0.85;;;16.20;52.10;;;;;;5032907;28;20173;-71
2021/05/19 11:49:31;;;;;;;1.20;0.40;;;16.20;52.80;;;;;;5033308;28;20080;-70
2021/05/19 11:51:58;;;;;;;2.53;0.50;;;16.20;51.80;;;;;;5015204;28;20026;-71
2021/05/19 11:54:24;;;;;;;3.83;0.70;;;16.30;51.50;;;;;;5032684;28;20022;-70
2021/05/19 11:57:00;;;;;;;3.28;0.70;;;16.40;50.50;;;;;;5033301;28;20088;-71
2021/05/19 11:59:29;;;;;;;1.55;0.40;;;16.50;50.20;;;;;;5033546;28;20052;-70
2021/05/19 12:02:07;;;;;;;1.95;0.90;;;16.70;50.90;;;;;;5015231;28;20033;-74
2021/05/19 12:04:35;;;;;;;1.52;0.47;;;16.90;51.10;;;;;;5033022;28;20037;-70
2021/05/19 12:07:06;;;;;;;4.22;0.80;;;17.20;52.10;;;;;;5014269;28;20044;-71
2021/05/19 12:09:37;;;;;;;3.58;0.65;;;17.30;50.10;;;;;;5015041;28;20037;-70
2021/05/19 12:12:15;;;;;;;2.08;0.65;;;17.40;48.00;;;;;;5014672;28;20029;-70
2021/05/19 12:14:53;;;;;;;1.17;0.40;;;17.30;48.50;;;;;;5033097;28;20048;-71
2021/05/19 12:17:26;;;;;;;1.23;0.50;;;17.30;48.40;;;;;;5032749;28;20021;-70
2021/05/19 12:19:52;;;;;;;2.78;0.60;;;17.20;50.70;;;;;;5032888;28;20089;-70
2021/05/19 12:22:22;;;;;;;0.47;0.22;;;17.30;52.40;;;;;;5032332;28;20029;-70
2021/05/19 12:24:53;;;;;;;1.50;0.60;;;17.50;49.60;;;;;;5032913;28;20017;-70
2021/05/19 12:27:21;;;;;;;2.88;0.50;;;17.70;49.30;;;;;;5032342;28;20025;-70
2021/05/19 12:29:51;;;;;;;1.42;0.60;;;17.90;48.50;;;;;;5015005;28;20092;-70
2021/05/19 12:32:27;;;;;;;2.05;0.40;;;18.10;46.00;;;;;;5032215;28;20254;-71
2021/05/19 12:35:00;;;;;;;1.98;0.50;;;18.20;48.40;;;;;;5032785;28;20025;-71
2021/05/19 12:37:46;;;;;;;2.42;0.50;;;18.30;45.90;;;;;;5032614;28;20127;-70
2021/05/19 12:40:15;;;;;;;2.28;0.50;;;18.50;48.20;;;;;;5031960;28;20119;-70
2021/05/19 12:43:10;;;;;;;3.75;0.60;;;18.70;45.50;;;;;;5032684;28;20033;-71
2021/05/19 12:45:38;;;;;;;1.92;0.40;;;19.00;44.90;;;;;;4998276;28;20030;-71
2021/05/19 12:48:14;;;;;;;2.47;0.40;;;18.90;44.40;;;;;;5013917;28;20491;-71
2021/05/19 12:51:00;;;;;;;3.05;0.50;;;18.90;45.50;;;;;;5015175;28;20088;-71
2021/05/19 12:53:41;;;;;;;2.22;0.60;;;18.80;45.20;;;;;;5014906;28;20359;-70
2021/05/19 12:56:15;;;;;;;2.60;0.45;;;18.60;45.70;;;;;;5014193;28;20026;-71
2021/05/19 12:58:52;;;;;;;0.90;0.47;;;18.50;45.50;;;;;;5014994;28;20044;-71
2021/05/19 13:01:18;;;;;;;2.47;0.50;;;18.60;45.80;;;;;;5014095;28;20033;-71
2021/05/19 13:03:45;;;;;;;0.70;0.40;;;18.20;48.30;;;;;;5014646;28;20108;-70
2021/05/19 13:06:11;;;;;;;0.82;0.30;;;17.90;49.20;;;;;;5033780;28;20540;-71
2021/05/19 13:08:36;;;;;;;1.63;0.40;;;17.60;50.40;;;;;;5036530;28;20026;-70
2021/05/19 13:11:05;;;;;;;0.80;0.40;;;17.40;50.50;;;;;;5035896;28;20351;-71